sensor_id;sensor_type;location;lat;lon;timestamp;pressure;altitude;pressure_sealevel;temperature;humidity
34742;BME280;20968;42.696;23.360;2022-12-29T00:00:48;96191.19;;;7.47;68.56
34742;BME280;20968;42.696;23.360;2022-12-29T00:03:14;96179.03;;;7.48;68.75
34742;BME280;20968;42.696;23.360;2022-12-29T00:05:39;96175.09;;;7.49;68.73
34742;BME280;20968;42.696;23.360;2022-12-29T00:08:04;96176.53;;;7.54;69.11
34742;BME280;20968;42.696;23.360;2022-12-29T00:10:30;96180.22;;;7.47;69.65
34742;BME280;20968;42.696;23.360;2022-12-29T00:12:55;96178.88;;;7.39;69.79
34742;BME280;20968;42.696;23.360;2022-12-29T00:15:39;96192.94;;;7.41;69.08
34742;BME280;20968;42.696;23.360;2022-12-29T00:18:06;96183.25;;;7.37;69.57
34742;BME280;20968;42.696;23.360;2022-12-29T00:20:36;96188.31;;;7.38;69.71
34742;BME280;20968;42.696;23.360;2022-12-29T00:23:20;96190.53;;;7.43;69.62
34742;BME280;20968;42.696;23.360;2022-12-29T00:26:11;96189.09;;;7.39;69.80
34742;BME280;20968;42.696;23.360;2022-12-29T00:28:56;96192.44;;;7.30;70.01
34742;BME280;20968;42.696;23.360;2022-12-29T00:31:40;96189.28;;;7.32;69.89
34742;BME280;20968;42.696;23.360;2022-12-29T00:34:24;96196.38;;;7.29;70.55
34742;BME280;20968;42.696;23.360;2022-12-29T00:37:08;96196.72;;;7.31;69.70
34742;BME280;20968;42.696;23.360;2022-12-29T00:39:33;96192.44;;;7.30;70.06
34742;BME280;20968;42.696;23.360;2022-12-29T00:42:17;96200.47;;;7.37;70.81
34742;BME280;20968;42.696;23.360;2022-12-29T00:45:03;96198.06;;;7.39;69.98
34742;BME280;20968;42.696;23.360;2022-12-29T00:47:28;96197.53;;;7.44;70.16
34742;BME280;20968;42.696;23.360;2022-12-29T00:49:54;96199.06;;;7.45;70.30
34742;BME280;20968;42.696;23.360;2022-12-29T00:52:19;96206.69;;;7.54;70.51
34742;BME280;20968;42.696;23.360;2022-12-29T00:54:44;96207.69;;;7.60;70.24
34742;BME280;20968;42.696;23.360;2022-12-29T00:57:10;96207.94;;;7.65;69.18
34742;BME280;20968;42.696;23.360;2022-12-29T00:59:38;96208.59;;;7.69;69.84
34742;BME280;20968;42.696;23.360;2022-12-29T01:02:04;96207.81;;;7.69;69.87
34742;BME280;20968;42.696;23.360;2022-12-29T01:04:30;96212.53;;;7.68;69.93
34742;BME280;20968;42.696;23.360;2022-12-29T01:06:55;96205.09;;;7.69;68.73
34742;BME280;20968;42.696;23.360;2022-12-29T01:09:21;96194.88;;;7.69;69.22
34742;BME280;20968;42.696;23.360;2022-12-29T01:12:05;96210.03;;;7.73;69.23
34742;BME280;20968;42.696;23.360;2022-12-29T01:14:31;96192.56;;;7.68;69.01
34742;BME280;20968;42.696;23.360;2022-12-29T01:16:57;96196.13;;;7.52;68.75
34742;BME280;20968;42.696;23.360;2022-12-29T01:19:23;96197.22;;;7.42;69.28
34742;BME280;20968;42.696;23.360;2022-12-29T01:21:49;96183.34;;;7.33;69.55
34742;BME280;20968;42.696;23.360;2022-12-29T01:24:16;96191.91;;;7.35;69.91
34742;BME280;20968;42.696;23.360;2022-12-29T01:26:42;96193.13;;;7.34;70.21
34742;BME280;20968;42.696;23.360;2022-12-29T01:29:08;96191.78;;;7.26;70.42
34742;BME280;20968;42.696;23.360;2022-12-29T01:31:33;96187.84;;;7.27;70.54
34742;BME280;20968;42.696;23.360;2022-12-29T01:33:58;96189.59;;;7.34;70.11
34742;BME280;20968;42.696;23.360;2022-12-29T01:36:24;96185.50;;;7.26;69.87
34742;BME280;20968;42.696;23.360;2022-12-29T01:38:50;96175.19;;;7.17;70.53
34742;BME280;20968;42.696;23.360;2022-12-29T01:41:16;96177.34;;;7.10;71.49
34742;BME280;20968;42.696;23.360;2022-12-29T01:43:46;96176.66;;;7.06;71.03
34742;BME280;20968;42.696;23.360;2022-12-29T01:46:18;96178.47;;;6.96;71.42
34742;BME280;20968;42.696;23.360;2022-12-29T01:48:47;96167.00;;;7.01;71.22
34742;BME280;20968;42.696;23.360;2022-12-29T01:51:15;96170.16;;;7.00;71.11
34742;BME280;20968;42.696;23.360;2022-12-29T01:53:41;96161.97;;;7.00;71.34
34742;BME280;20968;42.696;23.360;2022-12-29T01:56:11;96154.50;;;7.00;70.91
34742;BME280;20968;42.696;23.360;2022-12-29T01:58:40;96161.00;;;7.06;70.53
34742;BME280;20968;42.696;23.360;2022-12-29T02:01:07;96161.25;;;7.12;70.97
34742;BME280;20968;42.696;23.360;2022-12-29T02:03:33;96163.03;;;7.18;71.06
34742;BME280;20968;42.696;23.360;2022-12-29T02:06:18;96138.38;;;7.18;70.70
34742;BME280;20968;42.696;23.360;2022-12-29T02:08:47;96147.59;;;7.24;70.21
34742;BME280;20968;42.696;23.360;2022-12-29T02:11:15;96141.94;;;7.31;70.33
34742;BME280;20968;42.696;23.360;2022-12-29T02:13:41;96151.50;;;7.39;70.33
34742;BME280;20968;42.696;23.360;2022-12-29T02:32:52;96145.31;;;7.23;69.33
34742;BME280;20968;42.696;23.360;2022-12-29T02:43:06;96143.91;;;7.31;69.00
34742;BME280;20968;42.696;23.360;2022-12-29T02:45:45;96151.69;;;7.32;69.22
34742;BME280;20968;42.696;23.360;2022-12-29T02:53:26;96151.28;;;7.46;69.40
34742;BME280;20968;42.696;23.360;2022-12-29T02:56:11;96147.25;;;7.51;69.46
34742;BME280;20968;42.696;23.360;2022-12-29T02:58:37;96135.00;;;7.55;69.00
34742;BME280;20968;42.696;23.360;2022-12-29T03:01:29;96134.56;;;7.57;68.63
34742;BME280;20968;42.696;23.360;2022-12-29T03:15:26;96131.41;;;7.58;68.43
34742;BME280;20968;42.696;23.360;2022-12-29T03:18:15;96131.69;;;7.48;68.46
34742;BME280;20968;42.696;23.360;2022-12-29T03:20:53;96132.31;;;7.39;68.60
34742;BME280;20968;42.696;23.360;2022-12-29T03:23:20;96124.44;;;7.41;68.53
34742;BME280;20968;42.696;23.360;2022-12-29T03:25:54;96125.16;;;7.29;68.46
34742;BME280;20968;42.696;23.360;2022-12-29T03:28:24;96127.00;;;7.20;68.91
34742;BME280;20968;42.696;23.360;2022-12-29T03:30:53;96136.50;;;7.15;68.28
34742;BME280;20968;42.696;23.360;2022-12-29T03:33:23;96116.53;;;7.02;68.82
34742;BME280;20968;42.696;23.360;2022-12-29T03:35:52;96136.03;;;7.04;68.37
34742;BME280;20968;42.696;23.360;2022-12-29T03:38:23;96129.78;;;7.04;68.90
34742;BME280;20968;42.696;23.360;2022-12-29T03:40:54;96136.78;;;7.05;68.49
34742;BME280;20968;42.696;23.360;2022-12-29T03:43:21;96128.50;;;6.93;68.87
34742;BME280;20968;42.696;23.360;2022-12-29T03:45:46;96132.88;;;6.90;69.16
34742;BME280;20968;42.696;23.360;2022-12-29T03:48:12;96126.84;;;6.83;69.46
34742;BME280;20968;42.696;23.360;2022-12-29T03:50:37;96142.28;;;6.89;69.33
34742;BME280;20968;42.696;23.360;2022-12-29T03:53:03;96148.56;;;6.90;69.41
34742;BME280;20968;42.696;23.360;2022-12-29T03:55:28;96136.09;;;6.73;69.59
34742;BME280;20968;42.696;23.360;2022-12-29T03:57:54;96140.84;;;6.69;69.43
34742;BME280;20968;42.696;23.360;2022-12-29T04:00:19;96149.69;;;6.60;69.59
34742;BME280;20968;42.696;23.360;2022-12-29T04:02:44;96155.59;;;6.59;70.02
34742;BME280;20968;42.696;23.360;2022-12-29T04:05:10;96157.44;;;6.62;70.10
34742;BME280;20968;42.696;23.360;2022-12-29T04:07:35;96156.44;;;6.56;70.68
34742;BME280;20968;42.696;23.360;2022-12-29T04:10:01;96151.41;;;6.54;70.22
34742;BME280;20968;42.696;23.360;2022-12-29T04:12:27;96157.44;;;6.62;70.67
34742;BME280;20968;42.696;23.360;2022-12-29T04:14:52;96148.41;;;6.65;70.72
34742;BME280;20968;42.696;23.360;2022-12-29T04:17:17;96144.91;;;6.64;70.40
34742;BME280;20968;42.696;23.360;2022-12-29T04:19:43;96146.84;;;6.64;70.48
34742;BME280;20968;42.696;23.360;2022-12-29T04:22:08;96158.41;;;6.71;70.40
34742;BME280;20968;42.696;23.360;2022-12-29T04:24:33;96154.97;;;6.67;70.99
34742;BME280;20968;42.696;23.360;2022-12-29T04:26:59;96151.47;;;6.67;69.90
34742;BME280;20968;42.696;23.360;2022-12-29T04:29:24;96153.69;;;6.72;70.28
34742;BME280;20968;42.696;23.360;2022-12-29T04:31:50;96162.59;;;6.76;70.44
34742;BME280;20968;42.696;23.360;2022-12-29T04:34:15;96157.63;;;6.71;69.87
34742;BME280;20968;42.696;23.360;2022-12-29T04:36:41;96161.25;;;6.68;70.08
34742;BME280;20968;42.696;23.360;2022-12-29T04:39:06;96160.09;;;6.65;69.55
34742;BME280;20968;42.696;23.360;2022-12-29T04:41:32;96160.72;;;6.73;69.30
34742;BME280;20968;42.696;23.360;2022-12-29T04:43:57;96172.66;;;6.79;69.50
34742;BME280;20968;42.696;23.360;2022-12-29T04:46:23;96171.66;;;6.73;70.02
34742;BME280;20968;42.696;23.360;2022-12-29T04:48:48;96175.16;;;6.73;69.90
34742;BME280;20968;42.696;23.360;2022-12-29T04:51:14;96180.22;;;6.75;69.83
34742;BME280;20968;42.696;23.360;2022-12-29T04:53:39;96186.34;;;6.79;69.30
34742;BME280;20968;42.696;23.360;2022-12-29T04:56:05;96181.22;;;6.81;68.72
34742;BME280;20968;42.696;23.360;2022-12-29T04:58:30;96192.19;;;6.81;68.80
34742;BME280;20968;42.696;23.360;2022-12-29T05:00:56;96185.59;;;6.78;69.02
34742;BME280;20968;42.696;23.360;2022-12-29T05:03:21;96184.50;;;6.76;69.28
34742;BME280;20968;42.696;23.360;2022-12-29T05:05:47;96182.06;;;6.78;69.13
34742;BME280;20968;42.696;23.360;2022-12-29T05:08:12;96181.22;;;6.81;69.36
34742;BME280;20968;42.696;23.360;2022-12-29T05:10:37;96176.19;;;6.79;69.24
34742;BME280;20968;42.696;23.360;2022-12-29T05:13:03;96188.25;;;6.82;69.39
34742;BME280;20968;42.696;23.360;2022-12-29T05:15:28;96188.91;;;6.86;68.73
34742;BME280;20968;42.696;23.360;2022-12-29T05:17:54;96181.72;;;6.92;69.01
34742;BME280;20968;42.696;23.360;2022-12-29T05:20:19;96180.88;;;6.94;69.18
34742;BME280;20968;42.696;23.360;2022-12-29T05:22:45;96185.50;;;6.97;68.78
34742;BME280;20968;42.696;23.360;2022-12-29T05:25:10;96175.56;;;7.03;68.69
34742;BME280;20968;42.696;23.360;2022-12-29T05:27:36;96172.03;;;7.03;68.98
34742;BME280;20968;42.696;23.360;2022-12-29T05:30:02;96176.66;;;7.06;68.56
34742;BME280;20968;42.696;23.360;2022-12-29T05:32:28;96180.94;;;7.07;69.26
34742;BME280;20968;42.696;23.360;2022-12-29T05:34:53;96187.16;;;7.07;68.78
34742;BME280;20968;42.696;23.360;2022-12-29T05:37:18;96187.06;;;7.11;68.82
34742;BME280;20968;42.696;23.360;2022-12-29T05:39:44;96184.88;;;7.06;68.60
34742;BME280;20968;42.696;23.360;2022-12-29T05:42:09;96181.38;;;7.05;68.63
34742;BME280;20968;42.696;23.360;2022-12-29T05:44:35;96195.91;;;7.02;69.12
34742;BME280;20968;42.696;23.360;2022-12-29T05:47:00;96188.38;;;7.06;68.42
34742;BME280;20968;42.696;23.360;2022-12-29T05:49:26;96190.78;;;7.04;68.07
34742;BME280;20968;42.696;23.360;2022-12-29T05:51:51;96188.63;;;7.12;68.01
34742;BME280;20968;42.696;23.360;2022-12-29T05:54:16;96195.38;;;7.07;68.77
34742;BME280;20968;42.696;23.360;2022-12-29T05:56:42;96192.25;;;7.09;68.72
34742;BME280;20968;42.696;23.360;2022-12-29T05:59:07;96194.97;;;7.09;68.40
34742;BME280;20968;42.696;23.360;2022-12-29T06:01:33;96208.56;;;7.12;68.31
34742;BME280;20968;42.696;23.360;2022-12-29T06:04:00;96201.91;;;7.13;68.14
34742;BME280;20968;42.696;23.360;2022-12-29T06:06:25;96203.09;;;7.12;68.23
34742;BME280;20968;42.696;23.360;2022-12-29T06:08:50;96197.72;;;7.09;67.83
34742;BME280;20968;42.696;23.360;2022-12-29T06:11:16;96203.09;;;7.12;68.40
34742;BME280;20968;42.696;23.360;2022-12-29T06:13:41;96202.22;;;7.15;68.84
34742;BME280;20968;42.696;23.360;2022-12-29T06:16:08;96203.00;;;7.16;68.75
34742;BME280;20968;42.696;23.360;2022-12-29T06:18:33;96211.97;;;7.16;69.20
34742;BME280;20968;42.696;23.360;2022-12-29T06:21:04;96208.88;;;7.14;68.71
34742;BME280;20968;42.696;23.360;2022-12-29T06:23:30;96209.50;;;7.22;68.47
34742;BME280;20968;42.696;23.360;2022-12-29T06:25:55;96204.34;;;7.24;68.90
34742;BME280;20968;42.696;23.360;2022-12-29T06:28:21;96198.69;;;7.31;68.74
34742;BME280;20968;42.696;23.360;2022-12-29T06:30:46;96211.66;;;7.43;68.84
34742;BME280;20968;42.696;23.360;2022-12-29T06:33:13;96214.06;;;7.41;68.80
34742;BME280;20968;42.696;23.360;2022-12-29T06:35:38;96208.47;;;7.44;67.94
34742;BME280;20968;42.696;23.360;2022-12-29T06:38:04;96199.94;;;7.42;67.95
34742;BME280;20968;42.696;23.360;2022-12-29T06:40:29;96217.28;;;7.52;68.89
34742;BME280;20968;42.696;23.360;2022-12-29T06:42:55;96215.75;;;7.51;67.83
34742;BME280;20968;42.696;23.360;2022-12-29T06:45:20;96218.84;;;7.53;68.48
34742;BME280;20968;42.696;23.360;2022-12-29T06:47:46;96213.69;;;7.55;68.52
34742;BME280;20968;42.696;23.360;2022-12-29T06:50:11;96229.34;;;7.54;67.91
34742;BME280;20968;42.696;23.360;2022-12-29T06:52:37;96230.69;;;7.62;67.83
34742;BME280;20968;42.696;23.360;2022-12-29T06:55:02;96224.38;;;7.65;67.70
34742;BME280;20968;42.696;23.360;2022-12-29T06:57:28;96218.78;;;7.69;67.63
34742;BME280;20968;42.696;23.360;2022-12-29T06:59:53;96230.66;;;7.78;68.27
34742;BME280;20968;42.696;23.360;2022-12-29T07:02:21;96223.13;;;7.82;68.10
34742;BME280;20968;42.696;23.360;2022-12-29T07:04:47;96225.41;;;7.83;67.39
34742;BME280;20968;42.696;23.360;2022-12-29T07:07:12;96233.09;;;7.88;67.45
34742;BME280;20968;42.696;23.360;2022-12-29T07:09:37;96222.56;;;7.87;67.96
34742;BME280;20968;42.696;23.360;2022-12-29T07:12:03;96224.25;;;7.97;67.88
34742;BME280;20968;42.696;23.360;2022-12-29T07:14:28;96221.50;;;7.97;67.87
34742;BME280;20968;42.696;23.360;2022-12-29T07:16:54;96218.75;;;7.97;68.08
34742;BME280;20968;42.696;23.360;2022-12-29T07:19:19;96223.03;;;7.98;67.57
34742;BME280;20968;42.696;23.360;2022-12-29T07:21:45;96217.25;;;8.08;67.18
34742;BME280;20968;42.696;23.360;2022-12-29T07:24:10;96219.09;;;8.11;67.51
34742;BME280;20968;42.696;23.360;2022-12-29T07:26:36;96222.63;;;8.12;67.25
34742;BME280;20968;42.696;23.360;2022-12-29T07:29:03;96220.69;;;8.25;66.51
34742;BME280;20968;42.696;23.360;2022-12-29T07:31:28;96214.78;;;8.26;66.67
34742;BME280;20968;42.696;23.360;2022-12-29T07:33:54;96222.03;;;8.33;66.49
34742;BME280;20968;42.696;23.360;2022-12-29T07:36:19;96210.38;;;8.41;65.78
34742;BME280;20968;42.696;23.360;2022-12-29T07:38:45;96220.06;;;8.46;65.96
34742;BME280;20968;42.696;23.360;2022-12-29T07:41:10;96220.50;;;8.44;66.43
34742;BME280;20968;42.696;23.360;2022-12-29T07:43:36;96222.03;;;8.45;65.82
34742;BME280;20968;42.696;23.360;2022-12-29T07:46:01;96229.50;;;8.57;64.99
34742;BME280;20968;42.696;23.360;2022-12-29T07:48:27;96223.88;;;8.48;65.97
34742;BME280;20968;42.696;23.360;2022-12-29T07:50:53;96225.31;;;8.52;66.00
34742;BME280;20968;42.696;23.360;2022-12-29T07:53:19;96228.41;;;8.54;65.62
34742;BME280;20968;42.696;23.360;2022-12-29T07:55:44;96227.31;;;8.52;66.25
34742;BME280;20968;42.696;23.360;2022-12-29T07:58:10;96229.72;;;8.62;65.55
34742;BME280;20968;42.696;23.360;2022-12-29T08:00:36;96228.84;;;8.65;65.36
34742;BME280;20968;42.696;23.360;2022-12-29T08:03:03;96229.06;;;8.71;65.93
34742;BME280;20968;42.696;23.360;2022-12-29T08:05:30;96234.22;;;8.81;65.73
34742;BME280;20968;42.696;23.360;2022-12-29T08:07:56;96239.91;;;8.87;64.43
34742;BME280;20968;42.696;23.360;2022-12-29T08:10:22;96239.38;;;8.79;65.04
34742;BME280;20968;42.696;23.360;2022-12-29T08:12:48;96236.88;;;8.72;64.80
34742;BME280;20968;42.696;23.360;2022-12-29T08:15:13;96240.16;;;8.80;65.90
34742;BME280;20968;42.696;23.360;2022-12-29T08:17:39;96238.59;;;8.91;65.60
34742;BME280;20968;42.696;23.360;2022-12-29T08:20:06;96230.25;;;8.95;65.30
34742;BME280;20968;42.696;23.360;2022-12-29T08:22:32;96220.59;;;8.90;64.41
34742;BME280;20968;42.696;23.360;2022-12-29T08:24:57;96230.13;;;8.98;64.82
34742;BME280;20968;42.696;23.360;2022-12-29T08:27:23;96232.66;;;9.05;64.20
34742;BME280;20968;42.696;23.360;2022-12-29T08:29:48;96223.19;;;9.06;64.45
34742;BME280;20968;42.696;23.360;2022-12-29T08:32:14;96233.84;;;9.04;64.45
34742;BME280;20968;42.696;23.360;2022-12-29T08:34:39;96233.66;;;8.99;65.09
34742;BME280;20968;42.696;23.360;2022-12-29T08:37:05;96228.56;;;9.10;64.91
34742;BME280;20968;42.696;23.360;2022-12-29T08:39:30;96228.16;;;9.11;64.31
34742;BME280;20968;42.696;23.360;2022-12-29T08:42:16;96223.28;;;9.27;64.77
34742;BME280;20968;42.696;23.360;2022-12-29T08:44:42;96223.91;;;9.31;63.88
34742;BME280;20968;42.696;23.360;2022-12-29T08:47:09;96226.28;;;9.42;64.23
34742;BME280;20968;42.696;23.360;2022-12-29T08:49:35;96234.00;;;9.47;63.72
34742;BME280;20968;42.696;23.360;2022-12-29T08:52:00;96222.09;;;9.50;64.01
34742;BME280;20968;42.696;23.360;2022-12-29T08:54:26;96224.03;;;9.62;63.38
34742;BME280;20968;42.696;23.360;2022-12-29T08:56:51;96218.19;;;9.60;63.25
34742;BME280;20968;42.696;23.360;2022-12-29T08:59:17;96219.50;;;9.68;63.79
34742;BME280;20968;42.696;23.360;2022-12-29T09:01:42;96208.09;;;9.57;63.45
34742;BME280;20968;42.696;23.360;2022-12-29T09:04:08;96210.38;;;9.71;63.01
34742;BME280;20968;42.696;23.360;2022-12-29T09:06:34;96207.34;;;9.78;63.52
34742;BME280;20968;42.696;23.360;2022-12-29T09:08:59;96204.84;;;9.92;62.96
34742;BME280;20968;42.696;23.360;2022-12-29T09:11:25;96200.25;;;9.89;63.05
34742;BME280;20968;42.696;23.360;2022-12-29T09:13:51;96199.09;;;9.99;62.68
34742;BME280;20968;42.696;23.360;2022-12-29T09:16:18;96202.97;;;10.02;62.88
34742;BME280;20968;42.696;23.360;2022-12-29T09:18:44;96195.78;;;9.83;62.82
34742;BME280;20968;42.696;23.360;2022-12-29T09:21:10;96190.66;;;9.72;63.27
34742;BME280;20968;42.696;23.360;2022-12-29T09:23:37;96200.38;;;9.86;63.42
34742;BME280;20968;42.696;23.360;2022-12-29T09:26:02;96191.16;;;9.80;63.95
34742;BME280;20968;42.696;23.360;2022-12-29T09:28:28;96199.81;;;9.91;63.69
34742;BME280;20968;42.696;23.360;2022-12-29T09:30:54;96186.47;;;10.02;63.60
34742;BME280;20968;42.696;23.360;2022-12-29T09:33:20;96191.88;;;10.14;63.42
34742;BME280;20968;42.696;23.360;2022-12-29T09:35:54;96190.28;;;10.04;63.39
34742;BME280;20968;42.696;23.360;2022-12-29T09:38:31;96193.81;;;10.05;63.54
34742;BME280;20968;42.696;23.360;2022-12-29T09:41:05;96179.78;;;10.11;63.73
34742;BME280;20968;42.696;23.360;2022-12-29T09:46:35;96179.84;;;10.20;62.95
34742;BME280;20968;42.696;23.360;2022-12-29T09:51:52;96177.56;;;9.98;63.44
34742;BME280;20968;42.696;23.360;2022-12-29T09:54:39;96176.13;;;9.93;63.57
34742;BME280;20968;42.696;23.360;2022-12-29T09:59:56;96166.03;;;10.11;63.79
34742;BME280;20968;42.696;23.360;2022-12-29T10:02:40;96163.88;;;10.07;63.79
34742;BME280;20968;42.696;23.360;2022-12-29T10:10:50;96150.84;;;10.07;65.17
34742;BME280;20968;42.696;23.360;2022-12-29T10:13:29;96149.78;;;10.05;64.84
34742;BME280;20968;42.696;23.360;2022-12-29T10:22:15;96146.53;;;10.27;63.94
34742;BME280;20968;42.696;23.360;2022-12-29T10:24:44;96141.31;;;10.20;63.47
34742;BME280;20968;42.696;23.360;2022-12-29T10:27:13;96139.34;;;10.30;63.82
34742;BME280;20968;42.696;23.360;2022-12-29T10:29:46;96140.56;;;10.29;63.83
34742;BME280;20968;42.696;23.360;2022-12-29T10:32:23;96142.31;;;10.44;63.91
34742;BME280;20968;42.696;23.360;2022-12-29T10:34:55;96137.19;;;10.55;63.89
34742;BME280;20968;42.696;23.360;2022-12-29T10:37:31;96132.59;;;10.61;63.46
34742;BME280;20968;42.696;23.360;2022-12-29T10:39:59;96133.81;;;10.60;63.35
34742;BME280;20968;42.696;23.360;2022-12-29T10:42:28;96129.50;;;10.50;63.18
34742;BME280;20968;42.696;23.360;2022-12-29T10:44:55;96126.75;;;10.50;63.81
34742;BME280;20968;42.696;23.360;2022-12-29T10:47:26;96128.78;;;10.68;62.90
34742;BME280;20968;42.696;23.360;2022-12-29T10:49:53;96121.91;;;10.72;62.77
34742;BME280;20968;42.696;23.360;2022-12-29T10:52:20;96111.38;;;10.80;62.66
34742;BME280;20968;42.696;23.360;2022-12-29T10:57:35;96115.03;;;10.77;62.40
34742;BME280;20968;42.696;23.360;2022-12-29T11:00:11;96099.25;;;10.68;62.13
34742;BME280;20968;42.696;23.360;2022-12-29T11:03:00;96104.00;;;10.77;62.07
34742;BME280;20968;42.696;23.360;2022-12-29T11:08:04;96089.66;;;10.82;62.27
34742;BME280;20968;42.696;23.360;2022-12-29T11:10:38;96094.69;;;10.74;62.38
34742;BME280;20968;42.696;23.360;2022-12-29T11:15:48;96086.47;;;11.01;61.20
34742;BME280;20968;42.696;23.360;2022-12-29T11:21:01;96087.06;;;11.23;61.01
34742;BME280;20968;42.696;23.360;2022-12-29T11:23:35;96082.75;;;11.40;60.23
34742;BME280;20968;42.696;23.360;2022-12-29T11:28:33;96079.91;;;12.02;59.46
34742;BME280;20968;42.696;23.360;2022-12-29T11:31:01;96076.44;;;12.25;59.50
34742;BME280;20968;42.696;23.360;2022-12-29T11:33:38;96076.78;;;12.50;57.12
34742;BME280;20968;42.696;23.360;2022-12-29T11:36:12;96073.69;;;12.81;57.61
34742;BME280;20968;42.696;23.360;2022-12-29T11:38:59;96068.66;;;13.03;56.86
34742;BME280;20968;42.696;23.360;2022-12-29T11:41:29;96078.81;;;13.20;55.54
34742;BME280;20968;42.696;23.360;2022-12-29T11:43:59;96070.56;;;13.49;54.90
34742;BME280;20968;42.696;23.360;2022-12-29T11:46:32;96074.44;;;13.80;54.23
34742;BME280;20968;42.696;23.360;2022-12-29T11:48:59;96069.75;;;14.00;54.00
34742;BME280;20968;42.696;23.360;2022-12-29T11:51:45;96071.00;;;14.28;53.15
34742;BME280;20968;42.696;23.360;2022-12-29T11:54:27;96063.31;;;14.52;52.73
34742;BME280;20968;42.696;23.360;2022-12-29T11:56:55;96079.22;;;14.72;51.99
34742;BME280;20968;42.696;23.360;2022-12-29T12:01:57;96067.03;;;15.03;50.72
34742;BME280;20968;42.696;23.360;2022-12-29T12:04:30;96063.41;;;14.77;51.46
34742;BME280;20968;42.696;23.360;2022-12-29T12:07:05;96062.56;;;14.72;52.33
34742;BME280;20968;42.696;23.360;2022-12-29T12:09:50;96062.16;;;14.78;52.46
34742;BME280;20968;42.696;23.360;2022-12-29T12:14:58;96055.59;;;14.42;52.81
34742;BME280;20968;42.696;23.360;2022-12-29T12:17:37;96058.56;;;14.24;53.64
34742;BME280;20968;42.696;23.360;2022-12-29T12:20:06;96053.06;;;14.44;53.52
34742;BME280;20968;42.696;23.360;2022-12-29T12:22:45;96052.44;;;14.34;53.25
34742;BME280;20968;42.696;23.360;2022-12-29T12:25:32;96049.50;;;14.23;53.65
34742;BME280;20968;42.696;23.360;2022-12-29T12:28:10;96041.31;;;14.14;52.91
34742;BME280;20968;42.696;23.360;2022-12-29T12:30:46;96043.38;;;13.76;54.41
34742;BME280;20968;42.696;23.360;2022-12-29T12:33:35;96042.53;;;13.56;55.28
34742;BME280;20968;42.696;23.360;2022-12-29T12:39:16;96037.75;;;13.56;55.35
34742;BME280;20968;42.696;23.360;2022-12-29T12:57:42;96028.50;;;13.59;54.65
34742;BME280;20968;42.696;23.360;2022-12-29T13:00:15;96031.38;;;13.65;54.93
34742;BME280;20968;42.696;23.360;2022-12-29T13:08:44;96029.91;;;13.26;55.18
34742;BME280;20968;42.696;23.360;2022-12-29T13:14:39;96030.88;;;13.00;57.18
34742;BME280;20968;42.696;23.360;2022-12-29T13:17:36;96033.75;;;12.91;56.87
34742;BME280;20968;42.696;23.360;2022-12-29T13:23:26;96020.41;;;12.57;57.30
34742;BME280;20968;42.696;23.360;2022-12-29T13:28:31;96033.09;;;12.40;58.65
34742;BME280;20968;42.696;23.360;2022-12-29T13:36:19;96037.78;;;12.25;59.36
34742;BME280;20968;42.696;23.360;2022-12-29T13:41:57;96027.56;;;12.17;59.52
34742;BME280;20968;42.696;23.360;2022-12-29T13:44:50;96028.66;;;12.10;59.39
34742;BME280;20968;42.696;23.360;2022-12-29T13:48:04;96026.22;;;12.03;59.99
34742;BME280;20968;42.696;23.360;2022-12-29T13:50:35;96033.28;;;12.04;60.00
34742;BME280;20968;42.696;23.360;2022-12-29T13:55:53;96031.47;;;11.92;61.07
34742;BME280;20968;42.696;23.360;2022-12-29T13:58:46;96028.44;;;11.90;61.11
34742;BME280;20968;42.696;23.360;2022-12-29T14:01:29;96031.63;;;11.89;60.65
34742;BME280;20968;42.696;23.360;2022-12-29T14:04:00;96035.94;;;11.90;61.23
34742;BME280;20968;42.696;23.360;2022-12-29T14:06:32;96038.28;;;11.82;61.02
34742;BME280;20968;42.696;23.360;2022-12-29T14:09:02;96030.75;;;11.83;61.34
34742;BME280;20968;42.696;23.360;2022-12-29T14:11:39;96042.69;;;11.89;60.57
34742;BME280;20968;42.696;23.360;2022-12-29T14:14:24;96036.44;;;11.79;61.39
34742;BME280;20968;42.696;23.360;2022-12-29T14:16:51;96040.13;;;11.76;61.84
34742;BME280;20968;42.696;23.360;2022-12-29T14:19:22;96045.34;;;11.74;61.79
34742;BME280;20968;42.696;23.360;2022-12-29T14:21:53;96046.75;;;11.70;61.73
34742;BME280;20968;42.696;23.360;2022-12-29T14:35:39;96055.66;;;11.47;62.55
34742;BME280;20968;42.696;23.360;2022-12-29T14:38:19;96060.53;;;11.43;62.31
34742;BME280;20968;42.696;23.360;2022-12-29T14:40:46;96067.31;;;11.42;62.60
34742;BME280;20968;42.696;23.360;2022-12-29T14:43:24;96048.91;;;11.39;62.13
34742;BME280;20968;42.696;23.360;2022-12-29T14:46:01;96059.78;;;11.43;63.76
34742;BME280;20968;42.696;23.360;2022-12-29T14:48:34;96056.56;;;11.35;64.81
34742;BME280;20968;42.696;23.360;2022-12-29T14:51:01;96058.88;;;11.28;64.92
34742;BME280;20968;42.696;23.360;2022-12-29T14:53:46;96057.81;;;11.25;64.41
34742;BME280;20968;42.696;23.360;2022-12-29T14:56:14;96065.63;;;11.18;63.39
34742;BME280;20968;42.696;23.360;2022-12-29T14:58:47;96059.66;;;11.10;63.78
34742;BME280;20968;42.696;23.360;2022-12-29T15:03:46;96064.69;;;10.94;64.05
34742;BME280;20968;42.696;23.360;2022-12-29T15:06:15;96059.50;;;10.96;64.18
34742;BME280;20968;42.696;23.360;2022-12-29T15:11:23;96063.16;;;11.02;63.77
34742;BME280;20968;42.696;23.360;2022-12-29T15:13:51;96057.03;;;10.89;63.84
34742;BME280;20968;42.696;23.360;2022-12-29T15:16:29;96060.13;;;10.91;63.91
34742;BME280;20968;42.696;23.360;2022-12-29T15:18:55;96053.84;;;10.82;64.20
34742;BME280;20968;42.696;23.360;2022-12-29T15:21:26;96067.47;;;10.85;64.55
34742;BME280;20968;42.696;23.360;2022-12-29T15:23:52;96063.47;;;10.77;64.72
34742;BME280;20968;42.696;23.360;2022-12-29T15:26:17;96048.47;;;10.78;64.83
34742;BME280;20968;42.696;23.360;2022-12-29T15:28:49;96055.50;;;10.79;64.69
34742;BME280;20968;42.696;23.360;2022-12-29T15:31:16;96055.81;;;10.81;64.67